createdAt,value
2022-08-16T00:02:17.308Z,69.80
2022-08-16T00:05:21.792Z,67.02
2022-08-16T00:08:30.582Z,61.21
2022-08-16T00:11:41.892Z,58.50
2022-08-16T00:14:44.986Z,59.29
2022-08-16T00:17:57.036Z,59.70
2022-08-16T00:21:00.235Z,64.18
2022-08-16T00:24:05.101Z,64.07
2022-08-16T00:27:14.637Z,64.70
2022-08-16T00:30:28.751Z,64.43
2022-08-16T00:33:32.128Z,65.11
2022-08-16T00:36:37.060Z,64.93
2022-08-16T00:39:57.685Z,65.29
2022-08-16T00:43:01.820Z,64.51
2022-08-16T00:46:34.299Z,63.94
2022-08-16T00:49:39.589Z,60.72
2022-08-16T00:52:51.425Z,61.25
2022-08-16T00:55:56.868Z,62.06
2022-08-16T00:59:00.524Z,63.39
2022-08-16T01:02:30.613Z,64.00
2022-08-16T01:05:30.525Z,62.50
2022-08-16T01:08:37.059Z,64.28
2022-08-16T01:11:54.972Z,64.96
2022-08-16T01:15:00.447Z,65.94
2022-08-16T01:18:04.596Z,65.96
2022-08-16T01:21:34.783Z,67.47
2022-08-16T01:24:52.646Z,68.10
2022-08-16T01:28:01.496Z,69.48
2022-08-16T01:31:08.439Z,69.05
2022-08-16T01:34:24.982Z,69.48
2022-08-16T01:37:35.641Z,69.66
2022-08-16T01:40:40.123Z,69.30
2022-08-16T01:43:45.056Z,68.94
2022-08-16T01:46:57.755Z,68.56
2022-08-16T01:50:41.799Z,67.96
2022-08-16T01:53:26.517Z,67.76
2022-08-16T01:56:34.651Z,67.49
2022-08-16T01:59:39.268Z,67.81
2022-08-16T02:02:44.156Z,66.75
2022-08-16T02:05:55.622Z,67.24
2022-08-16T02:09:00.794Z,66.47
2022-08-16T02:12:50.125Z,62.88
2022-08-16T02:15:38.765Z,62.49
2022-08-16T02:18:48.141Z,63.71
2022-08-16T02:22:09.206Z,64.49
2022-08-16T02:25:16.774Z,65.26
2022-08-16T02:28:23.708Z,64.77
2022-08-16T02:32:04.540Z,62.88
2022-08-16T02:34:50.509Z,62.39
2022-08-16T02:37:56.085Z,63.79
2022-08-16T02:41:01.846Z,64.22
2022-08-16T02:44:06.662Z,64.06
2022-08-16T02:47:12.234Z,61.71
2022-08-16T02:50:53.796Z,62.16
2022-08-16T02:53:54.422Z,62.82
2022-08-16T02:56:59.569Z,62.97
2022-08-16T03:00:34.114Z,62.95
2022-08-16T03:04:40.629Z,62.94
2022-08-16T03:06:57.530Z,62.75
2022-08-16T03:10:04.364Z,63.21
2022-08-16T03:13:12.340Z,63.00
2022-08-16T03:16:37.608Z,62.50
2022-08-16T03:19:47.503Z,61.79
2022-08-16T03:22:56.570Z,61.78
2022-08-16T03:26:00.812Z,62.71
2022-08-16T03:29:04.580Z,63.18
2022-08-16T03:32:07.807Z,64.31
2022-08-16T03:35:10.909Z,64.08
2022-08-16T03:38:32.886Z,63.76
2022-08-16T03:41:50.877Z,62.99
2022-08-16T03:45:03.241Z,63.79
2022-08-16T03:48:08.070Z,65.28
2022-08-16T03:51:12.825Z,69.36
2022-08-16T03:54:20.233Z,69.48
2022-08-16T03:57:31.798Z,72.08
2022-08-16T04:00:59.523Z,72.45
2022-08-16T04:05:46.779Z,71.79
2022-08-16T05:36:16.200Z,74.39
2022-08-16T05:39:33.403Z,70.16
2022-08-16T05:43:11.963Z,69.26
2022-08-16T05:46:30.211Z,68.59
2022-08-16T05:49:40.109Z,68.80
2022-08-16T05:52:44.965Z,69.48
2022-08-16T05:55:48.889Z,70.00
2022-08-16T06:32:08.855Z,63.70
2022-08-16T07:18:07.602Z,58.38
2022-08-16T07:52:20.788Z,56.99
2022-08-16T07:55:24.622Z,53.74
2022-08-16T08:02:47.765Z,54.24
2022-08-16T08:05:55.986Z,53.38
2022-08-16T08:09:23.612Z,52.79
2022-08-16T08:12:32.053Z,51.91
2022-08-16T08:15:39.234Z,53.00
2022-08-16T08:19:07.279Z,52.04
2022-08-16T08:22:28.901Z,52.15
2022-08-16T08:25:54.263Z,51.00
2022-08-16T08:29:00.875Z,49.83
2022-08-16T08:32:57.851Z,51.11
2022-08-16T08:35:29.906Z,50.32
2022-08-16T08:38:46.008Z,49.06
2022-08-16T08:41:51.326Z,49.04
2022-08-16T08:44:55.961Z,48.19
2022-08-16T08:47:58.849Z,47.21
2022-08-16T08:51:09.104Z,46.68
2022-08-16T08:54:20.493Z,46.80
2022-08-16T08:57:26.555Z,45.80
2022-08-16T09:00:31.945Z,45.40
2022-08-16T09:03:54.067Z,44.81
2022-08-16T09:07:01.128Z,45.01
2022-08-16T09:10:20.310Z,44.70
2022-08-16T09:13:32.724Z,44.59
2022-08-16T09:17:02.476Z,44.24
2022-08-16T09:20:08.045Z,43.86
2022-08-16T09:23:11.508Z,44.51
2022-08-16T09:26:45.727Z,43.98
2022-08-16T09:29:45.465Z,43.04
2022-08-16T09:33:10.427Z,41.94
2022-08-16T09:36:32.220Z,41.74
2022-08-16T12:21:59.589Z,25.73
2022-08-16T12:49:42.150Z,24.06
2022-08-16T13:04:20.863Z,26.46
2022-08-16T13:26:57.789Z,24.69
2022-08-16T13:53:43.022Z,21.97
2022-08-16T14:09:16.971Z,22.14
2022-08-16T14:12:46.099Z,21.40
2022-08-16T14:16:23.951Z,21.26
2022-08-16T14:19:59.954Z,20.48
2022-08-16T14:23:14.713Z,19.95
2022-08-16T14:26:57.573Z,20.19
2022-08-16T14:30:01.391Z,20.74
2022-08-16T14:33:14.554Z,20.04
2022-08-16T14:36:31.346Z,20.32
2022-08-16T14:39:39.411Z,19.42
2022-08-16T14:51:10.705Z,21.50
2022-08-16T14:54:36.533Z,20.44
2022-08-16T14:58:06.999Z,21.36
2022-08-16T15:04:58.823Z,19.24
2022-08-16T15:08:02.364Z,19.79
2022-08-16T15:12:26.276Z,20.04
2022-08-16T15:19:31.270Z,19.98
2022-08-16T15:26:45.242Z,19.23
2022-08-16T15:29:53.867Z,19.52
2022-08-16T15:36:57.065Z,18.93
2022-08-16T15:40:01.405Z,18.68
2022-08-16T15:47:26.472Z,19.11
2022-08-16T15:58:58.978Z,20.78
2022-08-16T16:02:33.585Z,20.48
2022-08-16T16:13:42.914Z,20.25
2022-08-16T16:45:25.858Z,20.84
2022-08-16T16:52:58.068Z,22.02
2022-08-16T16:56:20.380Z,22.52
2022-08-16T16:59:50.050Z,21.84
2022-08-16T17:15:52.225Z,24.94
2022-08-16T17:29:51.439Z,27.02
2022-08-16T20:34:44.752Z,46.27
2022-08-16T20:37:48.685Z,46.04
2022-08-16T20:40:51.572Z,46.15
2022-08-16T20:43:55.277Z,46.44
2022-08-16T20:46:58.047Z,46.48
2022-08-16T20:50:03.780Z,47.44
2022-08-16T20:53:06.964Z,47.91
2022-08-16T20:56:11.212Z,48.69
2022-08-16T20:59:14.120Z,47.48
2022-08-16T21:02:24.643Z,47.83
2022-08-16T21:05:31.310Z,48.01
2022-08-16T21:08:53.245Z,48.60
2022-08-16T21:11:58.976Z,49.00
2022-08-16T21:15:08.769Z,49.37
2022-08-16T21:18:11.625Z,49.29
2022-08-16T21:21:14.703Z,49.12
2022-08-16T21:24:17.491Z,49.07
2022-08-16T21:27:20.722Z,48.70
2022-08-16T21:30:32.165Z,48.68
2022-08-16T21:33:35.567Z,49.89
2022-08-16T21:36:39.475Z,50.26
2022-08-16T21:39:42.675Z,50.75
2022-08-16T21:42:47.107Z,51.04
2022-08-16T21:45:54.109Z,50.82
2022-08-16T21:48:58.405Z,50.86
2022-08-16T21:52:05.040Z,51.76
2022-08-16T21:55:10.200Z,51.93
2022-08-16T21:58:16.905Z,52.21
2022-08-16T22:01:23.228Z,53.50
2022-08-16T22:04:36.729Z,52.90
2022-08-16T22:07:43.190Z,53.05
2022-08-16T22:11:04.165Z,53.31
2022-08-16T22:14:09.824Z,53.16
2022-08-16T22:17:12.937Z,53.39
2022-08-16T22:20:16.425Z,53.56
2022-08-16T22:23:22.327Z,53.75
2022-08-16T22:26:39.611Z,54.10
2022-08-16T22:29:46.958Z,54.13
2022-08-16T22:32:50.064Z,54.10
2022-08-16T22:35:53.317Z,53.89
2022-08-16T22:38:58.802Z,53.84
2022-08-16T22:42:08.643Z,53.73
2022-08-16T22:45:12.268Z,54.08
2022-08-16T22:48:16.194Z,54.58
2022-08-16T22:51:19.812Z,54.56
2022-08-16T22:54:44.160Z,55.48
2022-08-16T22:57:46.304Z,55.55
2022-08-16T23:00:50.329Z,55.89
2022-08-16T23:03:55.766Z,56.19
2022-08-16T23:06:58.931Z,56.77
2022-08-16T23:10:01.946Z,56.88
2022-08-16T23:13:06.699Z,56.72
2022-08-16T23:16:11.867Z,57.31
2022-08-16T23:19:16.964Z,57.59
2022-08-16T23:22:19.710Z,57.82
2022-08-16T23:25:31.256Z,58.02
2022-08-16T23:28:34.378Z,58.28
2022-08-16T23:31:38.871Z,58.74
2022-08-16T23:34:41.781Z,58.35
2022-08-16T23:37:46.265Z,58.11
2022-08-16T23:40:50.239Z,58.01
2022-08-16T23:43:53.661Z,57.90
2022-08-16T23:46:56.945Z,57.66
2022-08-16T23:50:03.531Z,57.31
2022-08-16T23:53:13.450Z,57.43
2022-08-16T23:56:19.861Z,57.55
2022-08-16T23:59:22.675Z,57.84
